Terminal Aerodrome Forecast
Issued by NWS Blacksburg, VA

Current Version | Previous Version | Text Only | Print | Product List | Glossary Off
Versions: 1 2 3 4 5 6 7 8 9 10 11 12 13 14 15 16 17 18 19 20 21 22

104
FTUS41 KRNK 191516 AAA
TAFBLF
TAF AMD
KBLF 191516Z 1915/2012 27007KT P6SM VCSH SCT015 BKN025
     FM191900 30012G20KT P6SM BKN030
     FM200000 31007KT P6SM SCT035=

USA.gov is the U.S. government's official web portal to all federal, state and local government web resources and services.